createdAt,value
2022-07-28T00:02:30.911Z,88.10
2022-07-28T00:07:33.328Z,87.30
2022-07-28T00:12:35.648Z,87.50
2022-07-28T00:17:38.448Z,88.00
2022-07-28T00:22:43.111Z,88.50
2022-07-28T00:27:45.430Z,87.60
2022-07-28T00:32:47.747Z,86.50
2022-07-28T00:37:50.236Z,86.10
2022-07-28T00:42:53.646Z,87.10
2022-07-28T00:47:55.912Z,87.10
2022-07-28T00:52:58.964Z,86.80
2022-07-28T00:58:01.696Z,86.30
2022-07-28T01:03:06.527Z,86.00
2022-07-28T01:08:20.272Z,85.50
2022-07-28T01:18:48.246Z,85.30
2022-07-28T01:24:16.976Z,84.80
2022-07-28T01:40:22.637Z,84.60
2022-07-28T01:45:26.372Z,82.70
2022-07-28T01:50:30.041Z,83.70
2022-07-28T01:55:33.917Z,84.40
2022-07-28T02:00:37.033Z,83.40
2022-07-28T02:05:42.522Z,83.60
2022-07-28T02:11:04.944Z,84.20
2022-07-28T02:16:13.901Z,84.60
2022-07-28T02:21:17.535Z,84.80
2022-07-28T02:26:26.189Z,85.10
2022-07-28T02:31:36.322Z,85.10
2022-07-28T02:36:47.478Z,86.00
2022-07-28T02:41:59.055Z,85.50
2022-07-28T02:47:04.443Z,85.70
2022-07-28T02:52:09.884Z,85.00
2022-07-28T02:57:14.612Z,85.80
2022-07-28T03:02:21.571Z,85.20
2022-07-28T03:07:24.010Z,85.70
2022-07-28T03:12:27.695Z,84.80
2022-07-28T03:17:29.984Z,84.80
2022-07-28T03:22:32.259Z,84.80
2022-07-28T03:27:40.133Z,84.90
2022-07-28T03:32:48.262Z,85.70
2022-07-28T03:37:59.478Z,85.60
2022-07-28T03:43:06.430Z,84.90
2022-07-28T03:48:08.788Z,84.40
2022-07-28T03:53:21.274Z,84.50
2022-07-28T03:58:28.613Z,85.00
2022-07-28T04:03:43.037Z,85.60
2022-07-28T04:08:46.720Z,84.50
2022-07-28T04:13:49.208Z,85.00
2022-07-28T04:18:51.447Z,84.90
2022-07-28T04:23:57.296Z,84.80
2022-07-28T04:29:03.427Z,84.70
2022-07-28T04:34:05.931Z,85.80
2022-07-28T04:39:11.141Z,86.10
2022-07-28T04:44:13.699Z,86.50
2022-07-28T04:49:16.286Z,86.80
2022-07-28T04:54:23.120Z,87.70
2022-07-28T04:59:28.552Z,88.10
2022-07-28T05:04:33.288Z,88.90
2022-07-28T05:09:37.752Z,88.70
2022-07-28T05:14:40.067Z,89.20
2022-07-28T05:19:42.342Z,88.80
2022-07-28T05:24:44.688Z,88.80
2022-07-28T05:29:48.086Z,89.10
2022-07-28T05:34:50.699Z,88.70
2022-07-28T05:39:53.047Z,88.20
2022-07-28T05:44:55.399Z,88.90
2022-07-28T05:50:02.027Z,87.20
2022-07-28T05:55:06.673Z,87.00
2022-07-28T06:00:11.903Z,87.90
2022-07-28T06:05:17.081Z,86.30
2022-07-28T06:10:22.278Z,87.20
2022-07-28T06:15:27.960Z,87.20
2022-07-28T06:20:30.319Z,87.30
2022-07-28T06:25:32.633Z,85.90
2022-07-28T06:30:34.941Z,86.10
2022-07-28T06:35:43.223Z,86.00
2022-07-28T06:40:50.506Z,84.90
2022-07-28T06:45:52.851Z,85.10
2022-07-28T06:50:56.598Z,85.10
2022-07-28T06:55:58.881Z,83.90
2022-07-28T07:01:02.770Z,83.50
2022-07-28T07:06:05.140Z,83.20
2022-07-28T07:11:07.523Z,82.30
2022-07-28T07:16:09.858Z,82.20
2022-07-28T07:21:12.150Z,82.80
2022-07-28T07:26:14.632Z,81.40
2022-07-28T07:31:17.278Z,82.20
2022-07-28T07:36:19.615Z,80.80
2022-07-28T07:41:21.926Z,79.30
2022-07-28T07:46:24.791Z,79.20
2022-07-28T07:51:27.082Z,76.90
2022-07-28T07:56:29.336Z,78.50
2022-07-28T08:01:31.645Z,77.10
2022-07-28T08:06:33.993Z,77.10
2022-07-28T08:11:38.114Z,76.30
2022-07-28T08:16:40.466Z,74.80
2022-07-28T08:21:42.809Z,76.50
2022-07-28T08:26:45.068Z,77.50
2022-07-28T08:31:47.743Z,75.90
2022-07-28T08:36:50.075Z,74.40
2022-07-28T08:41:59.361Z,75.80
2022-07-28T08:47:02.147Z,74.80
2022-07-28T08:52:05.357Z,72.60
2022-07-28T08:57:10.140Z,73.30
2022-07-28T09:02:13.200Z,74.40
2022-07-28T09:07:16.231Z,75.90
2022-07-28T09:12:18.581Z,75.10
2022-07-28T09:17:21.020Z,74.70
2022-07-28T09:22:23.466Z,73.90
2022-07-28T09:27:25.725Z,73.50
2022-07-28T09:32:28.163Z,72.30
2022-07-28T09:37:30.876Z,74.10
2022-07-28T09:42:46.785Z,73.50
2022-07-28T09:47:49.173Z,73.00
2022-07-28T09:52:51.576Z,72.90
2022-07-28T09:57:55.813Z,70.40
2022-07-28T10:02:58.357Z,73.70
2022-07-28T10:08:00.714Z,73.50
2022-07-28T10:13:06.590Z,73.40
2022-07-28T10:18:08.917Z,73.70
2022-07-28T10:23:12.864Z,72.90
2022-07-28T10:28:20.447Z,71.50
2022-07-28T10:33:24.717Z,73.50
2022-07-28T10:38:33.493Z,73.20
2022-07-28T10:43:36.864Z,73.40
2022-07-28T10:48:45.353Z,72.30
2022-07-28T10:53:55.486Z,71.50
2022-07-28T11:04:08.122Z,72.30
2022-07-28T11:14:34.051Z,71.80
2022-07-28T11:30:11.088Z,68.40
2022-07-28T11:35:13.376Z,66.10
2022-07-28T11:45:50.418Z,67.90
2022-07-28T11:56:22.519Z,67.20
2022-07-28T12:01:25.052Z,64.70
2022-07-28T12:06:39.178Z,65.20
2022-07-28T12:11:42.518Z,66.30
2022-07-28T12:16:49.612Z,64.90
2022-07-28T12:27:03.934Z,66.00
2022-07-28T12:32:10.214Z,67.20
2022-07-28T12:37:15.938Z,68.60
2022-07-28T12:42:20.255Z,68.70
2022-07-28T12:47:28.179Z,65.00
2022-07-28T12:52:30.822Z,67.80
2022-07-28T12:57:51.403Z,66.40
2022-07-28T13:02:57.784Z,66.40
2022-07-28T13:08:03.555Z,67.30
2022-07-28T13:13:08.478Z,67.40
2022-07-28T13:18:10.949Z,67.90
2022-07-28T13:23:13.236Z,69.00
2022-07-28T13:28:35.464Z,68.10
2022-07-28T13:33:37.663Z,68.70
2022-07-28T13:38:39.943Z,68.30
2022-07-28T13:43:42.215Z,68.20
2022-07-28T13:48:57.341Z,68.60
2022-07-28T13:54:01.155Z,69.10
2022-07-28T13:59:04.083Z,67.50
2022-07-28T14:04:16.659Z,68.70
2022-07-28T14:09:20.983Z,68.80
2022-07-28T14:14:25.256Z,68.40
2022-07-28T14:19:38.108Z,69.20
2022-07-28T14:24:42.505Z,68.60
2022-07-28T14:29:45.777Z,66.60
2022-07-28T14:34:48.096Z,67.10
2022-07-28T14:39:51.709Z,69.60
2022-07-28T14:44:53.982Z,68.30
2022-07-28T14:49:58.293Z,69.20
2022-07-28T14:55:00.940Z,69.30
2022-07-28T15:00:08.010Z,68.40
2022-07-28T15:05:11.388Z,69.60
2022-07-28T15:10:13.713Z,69.90
2022-07-28T15:15:15.961Z,69.20
2022-07-28T15:20:18.597Z,71.50
2022-07-28T15:25:20.989Z,71.50
2022-07-28T15:30:23.739Z,71.60
2022-07-28T15:35:26.531Z,71.10
2022-07-28T15:40:28.793Z,71.80
2022-07-28T15:45:32.666Z,72.10
2022-07-28T15:50:35.571Z,72.20
2022-07-28T15:55:37.828Z,72.00
2022-07-28T16:00:40.095Z,72.30
2022-07-28T16:05:44.142Z,72.80
2022-07-28T16:10:47.154Z,72.70
2022-07-28T16:15:49.909Z,73.10
2022-07-28T16:20:52.287Z,72.60
2022-07-28T16:25:54.654Z,73.00
2022-07-28T16:30:56.993Z,73.10
2022-07-28T16:35:59.304Z,73.20
2022-07-28T16:41:01.594Z,73.40
2022-07-28T16:46:04.105Z,73.10
2022-07-28T16:51:07.282Z,73.30
2022-07-28T16:56:09.557Z,73.30
2022-07-28T17:01:14.639Z,73.30
2022-07-28T17:06:17.273Z,73.10
2022-07-28T17:11:19.607Z,73.20
2022-07-28T17:16:22.006Z,73.50
2022-07-28T17:21:25.766Z,73.70
2022-07-28T17:39:53.565Z,72.70
2022-07-28T17:44:59.452Z,73.20
2022-07-28T17:50:01.738Z,72.90
2022-07-28T17:55:24.308Z,72.30
2022-07-28T18:00:26.642Z,72.80
2022-07-28T18:19:25.793Z,71.60
2022-07-28T18:24:28.925Z,72.60
2022-07-28T18:29:37.838Z,72.50
2022-07-28T18:34:41.740Z,72.60
2022-07-28T18:39:44.039Z,71.70
2022-07-28T18:44:46.309Z,71.70
2022-07-28T18:49:48.599Z,72.00
2022-07-28T18:54:51.984Z,71.80
2022-07-28T18:59:54.376Z,72.00
2022-07-28T19:04:57.755Z,71.80
2022-07-28T19:10:01.059Z,72.50
2022-07-28T19:15:03.507Z,72.50
2022-07-28T19:20:11.714Z,72.50
2022-07-28T19:25:14.016Z,72.00
2022-07-28T19:30:17.316Z,71.90
2022-07-28T19:35:19.678Z,72.20
2022-07-28T19:40:21.948Z,72.20
2022-07-28T19:45:24.761Z,71.90
2022-07-28T19:50:27.184Z,72.70
2022-07-28T19:55:32.335Z,72.30
2022-07-28T20:00:34.692Z,72.50
2022-07-28T20:05:37.110Z,72.30
2022-07-28T20:10:39.390Z,71.50
2022-07-28T20:15:42.248Z,71.40
2022-07-28T20:20:44.861Z,72.10
2022-07-28T20:25:47.215Z,72.30
2022-07-28T20:30:49.630Z,71.90
2022-07-28T20:35:53.226Z,71.40
2022-07-28T20:40:55.574Z,71.60
2022-07-28T20:45:57.922Z,72.10
2022-07-28T20:51:00.434Z,71.90
2022-07-28T20:56:02.710Z,72.30
2022-07-28T21:01:05.015Z,72.00
2022-07-28T21:06:07.333Z,71.80
2022-07-28T21:11:11.524Z,71.00
2022-07-28T21:16:16.778Z,71.50
2022-07-28T21:21:19.135Z,71.40
2022-07-28T21:26:21.526Z,70.90
2022-07-28T21:31:24.298Z,71.80
2022-07-28T21:36:26.600Z,71.60
2022-07-28T21:41:36.325Z,71.50
2022-07-28T21:46:39.778Z,71.30
2022-07-28T21:51:42.329Z,71.30
2022-07-28T21:56:46.158Z,71.30
2022-07-28T22:01:48.611Z,71.30
2022-07-28T22:06:51.014Z,71.20
2022-07-28T22:11:53.864Z,71.30
2022-07-28T22:16:56.153Z,71.20
2022-07-28T22:21:59.352Z,71.20
2022-07-28T22:27:01.637Z,71.10
2022-07-28T22:32:04.428Z,70.70
2022-07-28T22:37:12.886Z,70.70
2022-07-28T22:42:15.600Z,70.50
2022-07-28T22:47:17.956Z,70.20
2022-07-28T22:52:24.043Z,70.10
2022-07-28T22:57:26.353Z,69.90
2022-07-28T23:02:28.620Z,69.70
2022-07-28T23:07:51.242Z,69.50
2022-07-28T23:12:56.167Z,69.60
2022-07-28T23:18:01.065Z,69.30
2022-07-28T23:23:05.450Z,69.00
2022-07-28T23:28:08.503Z,68.90
2022-07-28T23:33:54.204Z,69.20
2022-07-28T23:38:32.986Z,69.00
2022-07-28T23:43:35.237Z,68.80
2022-07-28T23:48:37.541Z,68.70
2022-07-28T23:53:41.317Z,68.90
2022-07-28T23:58:43.702Z,68.90
